createdAt,value
2018-09-17T00:00:00.890Z,1021.97
2018-09-17T00:01:27.475Z,1021.97
2018-09-17T00:02:54.406Z,1021.98
2018-09-17T00:04:21.697Z,1021.97
2018-09-17T00:05:47.978Z,1021.95
2018-09-17T00:07:14.551Z,1021.89
2018-09-17T00:08:41.979Z,1021.85
2018-09-17T00:10:09.202Z,1021.83
2018-09-17T00:11:36.299Z,1021.83
2018-09-17T00:13:03.058Z,1021.80
2018-09-17T00:14:30.365Z,1021.77
2018-09-17T00:15:57.030Z,1021.79
2018-09-17T00:17:23.214Z,1021.83
2018-09-17T00:18:49.131Z,1021.82
2018-09-17T00:20:15.516Z,1021.83
2018-09-17T00:21:42.079Z,1021.85
2018-09-17T00:23:09.461Z,1021.84
2018-09-17T00:24:36.248Z,1021.83
2018-09-17T00:26:02.411Z,1021.82
2018-09-17T00:27:29.873Z,1021.83
2018-09-17T00:28:57.268Z,1021.83
2018-09-17T00:30:24.770Z,1021.82
2018-09-17T00:31:51.224Z,1021.83
2018-09-17T00:33:18.557Z,1021.85
2018-09-17T00:34:45.835Z,1021.85
2018-09-17T00:36:13.232Z,1021.84
2018-09-17T00:37:39.686Z,1021.82
2018-09-17T00:39:07.113Z,1021.80
2018-09-17T00:40:34.575Z,1021.78
2018-09-17T00:42:00.843Z,1021.77
2018-09-17T00:43:28.102Z,1021.81
2018-09-17T00:44:54.594Z,1021.80
2018-09-17T00:46:21.993Z,1021.80
2018-09-17T00:47:48.271Z,1021.79
2018-09-17T00:49:15.802Z,1021.77
2018-09-17T00:50:43.211Z,1021.80
2018-09-17T00:52:10.421Z,1021.84
2018-09-17T00:53:37.718Z,1021.83
2018-09-17T00:55:05.120Z,1021.83
2018-09-17T00:56:32.282Z,1021.84
2018-09-17T00:57:59.772Z,1021.82
2018-09-17T00:59:26.157Z,1021.82
2018-09-17T01:00:53.468Z,1021.79
2018-09-17T01:02:20.712Z,1021.77
2018-09-17T01:03:48.132Z,1021.75
2018-09-17T01:05:15.521Z,1021.76
2018-09-17T01:06:42.871Z,1021.75
2018-09-17T01:08:10.148Z,1021.77
2018-09-17T01:09:36.937Z,1021.77
2018-09-17T01:11:03.853Z,1021.77
2018-09-17T01:12:30.363Z,1021.74
2018-09-17T01:13:57.660Z,1021.77
2018-09-17T01:15:24.843Z,1021.76
2018-09-17T01:16:52.369Z,1021.77
2018-09-17T01:18:19.935Z,1021.77
2018-09-17T01:19:47.198Z,1021.77
2018-09-17T01:21:14.452Z,1021.75
2018-09-17T01:22:41.882Z,1021.76
2018-09-17T01:24:09.052Z,1021.74
2018-09-17T01:25:36.272Z,1021.74
2018-09-17T01:27:03.385Z,1021.73
2018-09-17T01:28:30.711Z,1021.71
2018-09-17T01:29:58.045Z,1021.71
2018-09-17T01:31:25.474Z,1021.73
2018-09-17T01:32:53.003Z,1021.73
2018-09-17T01:34:19.364Z,1021.74
2018-09-17T01:35:46.022Z,1021.76
2018-09-17T01:37:13.453Z,1021.79
2018-09-17T01:38:40.819Z,1021.81
2018-09-17T01:40:07.923Z,1021.80
2018-09-17T01:41:35.237Z,1021.77
2018-09-17T01:43:02.445Z,1021.73
2018-09-17T01:44:29.787Z,1021.72
2018-09-17T01:45:57.341Z,1021.72
2018-09-17T01:47:24.881Z,1021.70
2018-09-17T01:48:50.590Z,1021.66
2018-09-17T01:50:17.893Z,1021.68
2018-09-17T01:51:45.331Z,1021.70
2018-09-17T01:53:12.657Z,1021.70
2018-09-17T01:54:40.143Z,1021.72
2018-09-17T01:56:06.913Z,1021.71
2018-09-17T01:57:34.235Z,1021.73
2018-09-17T01:59:00.716Z,1021.73
2018-09-17T02:00:26.618Z,1021.75
2018-09-17T02:01:53.954Z,1021.75
2018-09-17T02:03:21.467Z,1021.75
2018-09-17T02:04:48.728Z,1021.72
2018-09-17T02:06:15.422Z,1021.71
2018-09-17T02:07:42.023Z,1021.64
2018-09-17T02:09:08.818Z,1021.62
2018-09-17T02:10:36.014Z,1021.60
2018-09-17T02:12:03.154Z,1021.59
2018-09-17T02:13:30.638Z,1021.62
2018-09-17T02:14:57.787Z,1021.64
2018-09-17T02:16:25.251Z,1021.64
2018-09-17T02:17:52.701Z,1021.61
2018-09-17T02:19:20.091Z,1021.61
2018-09-17T02:20:47.409Z,1021.58
2018-09-17T02:22:14.801Z,1021.58
2018-09-17T02:23:42.045Z,1021.55
2018-09-17T02:25:09.514Z,1021.54
2018-09-17T02:26:35.616Z,1021.55
2018-09-17T02:28:02.783Z,1021.53
2018-09-17T02:29:30.243Z,1021.52
2018-09-17T02:30:57.542Z,1021.55
2018-09-17T02:32:24.428Z,1021.57
2018-09-17T02:33:50.913Z,1021.59
2018-09-17T02:35:18.405Z,1021.62
2018-09-17T02:36:45.679Z,1021.66
2018-09-17T02:38:13.109Z,1021.69
2018-09-17T02:39:40.354Z,1021.72
2018-09-17T02:41:07.689Z,1021.73
2018-09-17T02:42:34.278Z,1021.74
2018-09-17T02:44:01.538Z,1021.71
2018-09-17T02:45:28.888Z,1021.71
2018-09-17T02:46:55.313Z,1021.69
2018-09-17T02:48:21.947Z,1021.70
2018-09-17T02:49:49.356Z,1021.68
2018-09-17T02:51:16.963Z,1021.69
2018-09-17T02:52:44.263Z,1021.66
2018-09-17T02:54:10.838Z,1021.64
2018-09-17T02:55:38.286Z,1021.58
2018-09-17T02:57:05.245Z,1021.49
2018-09-17T02:58:31.641Z,1021.47
2018-09-17T02:59:59.038Z,1021.44
2018-09-17T03:01:26.478Z,1021.42
2018-09-17T03:02:53.320Z,1021.38
2018-09-17T03:04:20.621Z,1021.35
2018-09-17T03:05:47.236Z,1021.37
2018-09-17T03:07:13.276Z,1021.38
2018-09-17T03:08:40.458Z,1021.38
2018-09-17T03:10:07.975Z,1021.37
2018-09-17T03:11:34.483Z,1021.36
2018-09-17T03:13:01.966Z,1021.38
2018-09-17T03:14:29.325Z,1021.40
2018-09-17T03:15:57.012Z,1021.41
2018-09-17T03:17:23.470Z,1021.49
2018-09-17T03:18:50.615Z,1021.57
2018-09-17T03:20:18.070Z,1021.63
2018-09-17T03:21:45.489Z,1021.65
2018-09-17T03:23:12.685Z,1021.70
2018-09-17T03:24:40.068Z,1021.72
2018-09-17T03:26:07.884Z,1021.77
2018-09-17T03:27:33.560Z,1021.80
2018-09-17T03:29:01.002Z,1021.82
2018-09-17T03:30:28.426Z,1021.82
2018-09-17T03:31:55.861Z,1021.81
2018-09-17T03:33:22.518Z,1021.79
2018-09-17T03:34:48.747Z,1021.74
2018-09-17T03:36:15.997Z,1021.71
2018-09-17T03:37:43.512Z,1021.73
2018-09-17T03:39:10.971Z,1021.72
2018-09-17T03:40:38.191Z,1021.70
2018-09-17T03:42:05.304Z,1021.70
2018-09-17T03:43:32.358Z,1021.70
2018-09-17T03:44:59.585Z,1021.70
2018-09-17T03:46:26.939Z,1021.71
2018-09-17T03:47:57.281Z,1021.68
2018-09-17T03:49:21.409Z,1021.69
2018-09-17T03:50:48.881Z,1021.66
2018-09-17T03:52:16.381Z,1021.64
2018-09-17T03:53:43.572Z,1021.63
2018-09-17T03:55:10.057Z,1021.61
2018-09-17T03:56:40.494Z,1021.66
2018-09-17T03:58:04.543Z,1021.70
2018-09-17T03:59:31.940Z,1021.75
2018-09-17T04:00:59.464Z,1021.75
2018-09-17T04:02:26.733Z,1021.74
2018-09-17T04:03:54.250Z,1021.74
2018-09-17T04:05:21.453Z,1021.78
2018-09-17T04:06:48.915Z,1021.79
2018-09-17T04:08:15.973Z,1021.83
2018-09-17T04:09:43.392Z,1021.86
2018-09-17T04:11:10.484Z,1021.86
2018-09-17T04:12:37.352Z,1021.88
2018-09-17T04:14:04.682Z,1021.90
2018-09-17T04:15:31.350Z,1021.91
2018-09-17T04:16:58.564Z,1021.92
2018-09-17T04:18:25.989Z,1021.92
2018-09-17T04:19:53.305Z,1021.94
2018-09-17T04:21:19.794Z,1021.94
2018-09-17T04:22:47.158Z,1021.96
2018-09-17T04:24:14.359Z,1021.99
2018-09-17T04:25:41.843Z,1022.00
2018-09-17T04:27:09.017Z,1022.01
2018-09-17T04:28:36.402Z,1022.03
2018-09-17T04:30:03.380Z,1022.02
2018-09-17T04:31:29.846Z,1021.98
2018-09-17T04:32:56.921Z,1021.94
2018-09-17T04:34:23.132Z,1021.95
2018-09-17T04:35:49.917Z,1021.95
2018-09-17T04:37:17.379Z,1021.97
2018-09-17T04:38:44.624Z,1021.98
2018-09-17T04:40:11.891Z,1021.99
2018-09-17T04:41:39.239Z,1021.98
2018-09-17T04:43:06.626Z,1022.01
2018-09-17T04:44:33.830Z,1022.03
2018-09-17T04:46:01.117Z,1022.04
2018-09-17T04:47:28.594Z,1022.06
2018-09-17T04:48:55.871Z,1022.08
2018-09-17T04:50:23.463Z,1022.09
2018-09-17T04:51:49.775Z,1022.09
2018-09-17T04:53:16.489Z,1022.08
2018-09-17T04:54:43.774Z,1022.08
2018-09-17T04:56:11.012Z,1022.06
2018-09-17T04:57:38.540Z,1022.05
2018-09-17T04:59:05.917Z,1022.05
2018-09-17T05:00:32.667Z,1022.05
2018-09-17T05:02:00.116Z,1022.02
2018-09-17T05:03:27.524Z,1022.00
2018-09-17T05:04:54.841Z,1021.96
2018-09-17T05:06:22.523Z,1021.98
2018-09-17T05:07:49.748Z,1021.95
2018-09-17T05:09:17.219Z,1021.97
2018-09-17T05:10:44.594Z,1021.97
2018-09-17T05:12:11.877Z,1021.98
2018-09-17T05:13:40.110Z,1022.00
2018-09-17T05:15:05.735Z,1022.00
2018-09-17T05:16:32.097Z,1021.97
2018-09-17T05:17:59.361Z,1021.97
2018-09-17T05:19:26.171Z,1021.95
2018-09-17T05:20:53.629Z,1021.96
2018-09-17T05:22:21.043Z,1021.96
2018-09-17T05:23:48.386Z,1021.96
2018-09-17T05:25:15.729Z,1021.96
2018-09-17T05:26:43.164Z,1021.99
2018-09-17T05:28:10.372Z,1021.99
2018-09-17T05:29:37.321Z,1022.02
2018-09-17T05:31:04.242Z,1022.05
2018-09-17T05:32:31.267Z,1022.08
2018-09-17T05:33:58.568Z,1022.11
2018-09-17T05:35:26.009Z,1022.12
2018-09-17T05:36:52.159Z,1022.13
2018-09-17T05:38:19.499Z,1022.13
2018-09-17T05:39:56.576Z,1022.10
2018-09-17T05:57:13.512Z,1022.05
2018-09-17T05:58:40.273Z,1022.02
2018-09-17T06:00:06.789Z,1022.00
2018-09-17T06:01:34.039Z,1021.99
2018-09-17T06:03:01.390Z,1022.00
2018-09-17T06:04:31.647Z,1021.99
2018-09-17T06:05:56.081Z,1022.03
2018-09-17T06:10:17.904Z,1022.09
2018-09-17T06:28:22.842Z,1022.06
2018-09-17T06:29:49.627Z,1022.08
2018-09-17T06:31:15.810Z,1022.04
2018-09-17T06:32:43.226Z,1022.02
2018-09-17T06:34:10.270Z,1021.98
2018-09-17T06:35:37.755Z,1021.98
2018-09-17T06:37:05.236Z,1021.99
2018-09-17T06:38:32.493Z,1021.99
2018-09-17T06:39:59.807Z,1021.99
2018-09-17T06:41:26.490Z,1021.97
2018-09-17T06:42:53.767Z,1021.95
2018-09-17T06:44:21.109Z,1021.93
2018-09-17T06:45:48.419Z,1021.92
2018-09-17T06:47:15.780Z,1021.90
2018-09-17T06:48:42.308Z,1021.88
2018-09-17T06:50:09.563Z,1021.86
2018-09-17T06:51:37.122Z,1021.85
2018-09-17T06:53:03.978Z,1021.86
2018-09-17T06:54:31.381Z,1021.87
2018-09-17T06:55:58.429Z,1021.86
2018-09-17T06:57:25.843Z,1021.87
2018-09-17T06:58:53.356Z,1021.87
2018-09-17T07:00:19.895Z,1021.86
2018-09-17T07:01:45.802Z,1021.88
2018-09-17T07:03:13.116Z,1021.90
2018-09-17T07:04:39.454Z,1021.89
2018-09-17T07:06:06.316Z,1021.87
2018-09-17T07:07:33.552Z,1021.86
2018-09-17T07:09:00.878Z,1021.82
2018-09-17T07:10:28.362Z,1021.77
2018-09-17T07:11:55.467Z,1021.73
2018-09-17T07:13:22.704Z,1021.73
2018-09-17T07:14:50.189Z,1021.72
2018-09-17T07:16:17.566Z,1021.73
2018-09-17T07:17:45.611Z,1021.74
2018-09-17T07:19:11.911Z,1021.74
2018-09-17T07:20:39.244Z,1021.71
2018-09-17T07:22:05.882Z,1021.72
2018-09-17T07:23:32.320Z,1021.68
2018-09-17T07:24:59.710Z,1021.67
2018-09-17T07:26:26.253Z,1021.72
2018-09-17T07:27:53.624Z,1021.72
2018-09-17T07:29:20.215Z,1021.72
2018-09-17T07:30:47.599Z,1021.73
2018-09-17T07:32:14.202Z,1021.73
2018-09-17T07:33:41.454Z,1021.73
2018-09-17T07:35:08.932Z,1021.70
2018-09-17T07:36:36.465Z,1021.68
2018-09-17T07:38:02.845Z,1021.68
2018-09-17T07:39:30.340Z,1021.68
2018-09-17T07:40:57.570Z,1021.71
2018-09-17T07:42:25.228Z,1021.71
2018-09-17T07:43:55.411Z,1021.71
2018-09-17T07:45:19.858Z,1021.74
2018-09-17T07:46:47.487Z,1021.78
2018-09-17T07:48:14.019Z,1021.79
2018-09-17T07:49:41.273Z,1021.82
2018-09-17T07:51:08.697Z,1021.81
2018-09-17T07:52:36.028Z,1021.81
2018-09-17T07:54:03.044Z,1021.82
2018-09-17T07:55:30.613Z,1021.81
2018-09-17T07:56:58.168Z,1021.84
2018-09-17T07:58:24.392Z,1021.85
2018-09-17T07:59:51.983Z,1021.84
2018-09-17T08:01:19.515Z,1021.83
2018-09-17T08:02:46.026Z,1021.81
2018-09-17T08:04:13.434Z,1021.78
2018-09-17T08:05:40.379Z,1021.80
2018-09-17T08:07:07.343Z,1021.79
2018-09-17T08:08:33.990Z,1021.76
2018-09-17T08:10:01.480Z,1021.76
2018-09-17T08:11:29.177Z,1021.74
2018-09-17T08:12:55.576Z,1021.75
2018-09-17T08:14:22.794Z,1021.74
2018-09-17T08:15:49.020Z,1021.74
2018-09-17T08:17:16.574Z,1021.77
2018-09-17T08:18:43.844Z,1021.77
2018-09-17T08:20:11.169Z,1021.79
2018-09-17T08:21:38.662Z,1021.79
2018-09-17T08:23:06.152Z,1021.81
2018-09-17T08:24:33.495Z,1021.82
2018-09-17T08:26:01.029Z,1021.82
2018-09-17T08:27:28.510Z,1021.83
2018-09-17T08:28:56.208Z,1021.87
2018-09-17T08:30:22.747Z,1021.85
2018-09-17T08:31:50.244Z,1021.86
2018-09-17T08:33:16.297Z,1021.91
2018-09-17T08:34:43.518Z,1021.91
2018-09-17T08:36:11.041Z,1021.91
2018-09-17T08:37:38.325Z,1021.89
2018-09-17T08:39:05.889Z,1021.90
2018-09-17T08:40:33.137Z,1021.90
2018-09-17T08:42:00.444Z,1021.90
2018-09-17T08:43:27.877Z,1021.94
2018-09-17T08:44:55.282Z,1021.95
2018-09-17T08:46:21.851Z,1021.93
2018-09-17T08:47:49.316Z,1021.95
2018-09-17T08:49:16.686Z,1021.91
2018-09-17T08:50:44.253Z,1021.89
2018-09-17T08:52:11.789Z,1021.88
2018-09-17T08:53:39.436Z,1021.87
2018-09-17T08:55:06.274Z,1021.89
2018-09-17T08:56:33.553Z,1021.87
2018-09-17T08:58:00.911Z,1021.85
2018-09-17T08:59:27.659Z,1021.87
2018-09-17T09:00:53.675Z,1021.82
2018-09-17T09:02:20.914Z,1021.82
2018-09-17T09:03:48.341Z,1021.80
2018-09-17T09:05:15.719Z,1021.80
2018-09-17T09:06:43.252Z,1021.76
2018-09-17T09:08:10.664Z,1021.71
2018-09-17T09:09:37.791Z,1021.69
2018-09-17T09:11:04.374Z,1021.75
2018-09-17T09:12:31.773Z,1021.75
2018-09-17T09:13:59.285Z,1021.73
2018-09-17T09:15:26.780Z,1021.73
2018-09-17T09:16:52.802Z,1021.76
2018-09-17T09:18:20.184Z,1021.78
2018-09-17T09:19:47.827Z,1021.81
2018-09-17T09:21:14.661Z,1021.84
2018-09-17T09:22:42.031Z,1021.82
2018-09-17T09:24:09.566Z,1021.80
2018-09-17T09:25:36.797Z,1021.81
2018-09-17T09:27:03.137Z,1021.80
2018-09-17T09:28:29.523Z,1021.81
2018-09-17T09:29:57.213Z,1021.84
2018-09-17T09:31:24.512Z,1021.84
2018-09-17T09:32:51.907Z,1021.82
2018-09-17T09:34:18.653Z,1021.77
2018-09-17T09:35:46.017Z,1021.74
2018-09-17T09:37:13.530Z,1021.75
2018-09-17T09:38:41.171Z,1021.75
2018-09-17T09:40:08.783Z,1021.75
2018-09-17T09:41:36.396Z,1021.75
2018-09-17T09:43:03.063Z,1021.73
2018-09-17T09:44:30.621Z,1021.73
2018-09-17T09:45:57.015Z,1021.72
2018-09-17T09:47:24.597Z,1021.70
2018-09-17T09:48:50.992Z,1021.69
2018-09-17T09:50:18.181Z,1021.71
2018-09-17T09:51:45.648Z,1021.65
2018-09-17T09:53:13.114Z,1021.64
2018-09-17T09:54:40.726Z,1021.58
2018-09-17T09:56:08.080Z,1021.57
2018-09-17T09:57:35.173Z,1021.58
2018-09-17T09:59:01.322Z,1021.62
2018-09-17T10:00:28.828Z,1021.59
2018-09-17T10:01:55.443Z,1021.56
2018-09-17T10:03:21.863Z,1021.54
2018-09-17T10:04:49.611Z,1021.53
2018-09-17T10:06:17.094Z,1021.54
2018-09-17T10:07:44.653Z,1021.54
2018-09-17T10:09:12.030Z,1021.54
2018-09-17T10:10:39.721Z,1021.53
2018-09-17T10:12:07.164Z,1021.50
2018-09-17T10:13:34.699Z,1021.47
2018-09-17T10:15:02.008Z,1021.44
2018-09-17T10:16:29.704Z,1021.44
2018-09-17T10:17:57.205Z,1021.43
2018-09-17T10:19:24.748Z,1021.38
2018-09-17T10:20:52.176Z,1021.40
2018-09-17T10:22:19.708Z,1021.37
2018-09-17T10:23:47.209Z,1021.38
2018-09-17T10:25:14.619Z,1021.36
2018-09-17T10:26:42.095Z,1021.35
2018-09-17T10:28:09.801Z,1021.34
2018-09-17T10:29:37.326Z,1021.34
2018-09-17T10:31:04.399Z,1021.31
2018-09-17T10:32:31.513Z,1021.31
2018-09-17T10:33:58.897Z,1021.23
2018-09-17T10:35:26.417Z,1021.25
2018-09-17T10:36:53.158Z,1021.23
2018-09-17T10:38:20.676Z,1021.23
2018-09-17T10:39:48.171Z,1021.27
2018-09-17T10:41:15.569Z,1021.28
2018-09-17T10:42:43.257Z,1021.27
2018-09-17T10:44:10.791Z,1021.26
2018-09-17T10:45:38.450Z,1021.26
2018-09-17T10:47:06.009Z,1021.28
2018-09-17T10:48:32.799Z,1021.22
2018-09-17T10:50:00.056Z,1021.22
2018-09-17T10:51:27.692Z,1021.17
2018-09-17T10:52:54.180Z,1021.21
2018-09-17T10:54:21.538Z,1021.14
2018-09-17T10:55:49.247Z,1021.13
2018-09-17T10:57:15.770Z,1021.11
2018-09-17T10:58:42.171Z,1021.12
2018-09-17T11:00:09.639Z,1021.11
2018-09-17T11:01:37.146Z,1021.09
2018-09-17T11:03:04.404Z,1021.09
2018-09-17T11:04:31.847Z,1021.04
2018-09-17T11:06:07.275Z,1020.99
2018-09-17T11:07:25.905Z,1020.97
2018-09-17T11:08:52.682Z,1020.94
2018-09-17T11:10:19.487Z,1020.95
2018-09-17T11:11:46.810Z,1020.95
2018-09-17T11:13:14.576Z,1020.91
2018-09-17T11:14:42.051Z,1020.92
2018-09-17T11:16:09.459Z,1020.88
2018-09-17T11:17:36.890Z,1020.91
2018-09-17T11:19:04.240Z,1020.90
2018-09-17T11:20:32.279Z,1020.89
2018-09-17T11:21:59.217Z,1020.88
2018-09-17T11:23:26.830Z,1020.88
2018-09-17T11:24:54.280Z,1020.86
2018-09-17T11:26:21.857Z,1020.83
2018-09-17T11:27:49.337Z,1020.84
2018-09-17T11:29:16.923Z,1020.82
2018-09-17T11:30:44.425Z,1020.75
2018-09-17T11:32:12.061Z,1020.71
2018-09-17T11:33:39.519Z,1020.70
2018-09-17T11:35:06.698Z,1020.66
2018-09-17T11:36:34.138Z,1020.68
2018-09-17T11:38:00.774Z,1020.64
2018-09-17T11:39:28.302Z,1020.64
2018-09-17T11:40:56.026Z,1020.56
2018-09-17T11:42:23.619Z,1020.57
2018-09-17T11:43:51.227Z,1020.55
2018-09-17T11:45:19.017Z,1020.55
2018-09-17T11:46:46.511Z,1020.53
2018-09-17T11:48:14.091Z,1020.55
2018-09-17T11:49:40.816Z,1020.52
2018-09-17T11:51:08.275Z,1020.52
2018-09-17T11:52:35.552Z,1020.54
2018-09-17T11:54:02.590Z,1020.55
2018-09-17T11:55:29.096Z,1020.54
2018-09-17T11:56:55.784Z,1020.55
2018-09-17T11:58:23.378Z,1020.50
2018-09-17T11:59:51.071Z,1020.50
2018-09-17T12:01:18.720Z,1020.46
2018-09-17T12:02:46.183Z,1020.41
2018-09-17T12:04:13.875Z,1020.39
2018-09-17T12:05:40.649Z,1020.37
2018-09-17T12:07:08.168Z,1020.38
2018-09-17T12:08:35.261Z,1020.36
2018-09-17T12:10:02.525Z,1020.35
2018-09-17T12:11:30.152Z,1020.34
2018-09-17T12:12:57.673Z,1020.30
2018-09-17T12:14:24.556Z,1020.27
2018-09-17T12:15:51.223Z,1020.29
2018-09-17T12:17:18.799Z,1020.30
2018-09-17T12:18:46.498Z,1020.30
2018-09-17T12:20:14.065Z,1020.30
2018-09-17T12:21:41.460Z,1020.35
2018-09-17T12:23:08.152Z,1020.32
2018-09-17T12:24:35.801Z,1020.28
2018-09-17T12:26:02.363Z,1020.27
2018-09-17T12:27:29.952Z,1020.31
2018-09-17T12:28:57.557Z,1020.29
2018-09-17T12:30:25.232Z,1020.31
2018-09-17T12:31:52.265Z,1020.24
2018-09-17T12:33:18.857Z,1020.23
2018-09-17T12:34:45.874Z,1020.22
2018-09-17T12:36:12.605Z,1020.18
2018-09-17T12:37:40.268Z,1020.20
2018-09-17T12:39:07.908Z,1020.19
2018-09-17T12:40:35.764Z,1020.20
2018-09-17T12:42:03.451Z,1020.18
2018-09-17T12:43:30.885Z,1020.17
2018-09-17T12:44:58.588Z,1020.16
2018-09-17T12:46:26.146Z,1020.15
2018-09-17T12:47:53.440Z,1020.12
2018-09-17T12:49:21.269Z,1020.13
2018-09-17T12:50:48.867Z,1020.16
2018-09-17T12:52:16.505Z,1020.11
2018-09-17T12:53:44.024Z,1020.10
2018-09-17T12:55:11.463Z,1020.13
2018-09-17T12:56:39.111Z,1020.13
2018-09-17T12:58:06.466Z,1020.15
2018-09-17T12:59:34.031Z,1020.15
2018-09-17T13:01:01.572Z,1020.12
2018-09-17T13:02:28.303Z,1020.14
2018-09-17T13:03:55.870Z,1020.12
2018-09-17T13:05:23.329Z,1020.09
2018-09-17T13:06:50.989Z,1020.09
2018-09-17T13:08:18.578Z,1020.12
2018-09-17T13:09:46.024Z,1020.11
2018-09-17T13:11:13.690Z,1020.09
2018-09-17T13:12:41.409Z,1020.08
2018-09-17T13:14:09.012Z,1020.03
2018-09-17T13:15:36.540Z,1020.04
2018-09-17T13:17:04.118Z,1020.03
2018-09-17T13:18:31.769Z,1020.02
2018-09-17T13:19:58.381Z,1020.02
2018-09-17T13:21:25.846Z,1019.98
2018-09-17T13:22:53.538Z,1019.98
2018-09-17T13:24:21.307Z,1019.96
2018-09-17T13:25:48.164Z,1019.99
2018-09-17T13:27:15.580Z,1019.96
2018-09-17T13:28:43.090Z,1019.99
2018-09-17T13:30:10.566Z,1019.99
2018-09-17T13:31:38.220Z,1020.00
2018-09-17T13:33:05.677Z,1019.98
2018-09-17T13:34:34.326Z,1019.98
2018-09-17T13:36:00.809Z,1019.97
2018-09-17T13:37:27.853Z,1019.97
2018-09-17T13:38:55.021Z,1019.95
2018-09-17T13:40:22.699Z,1019.97
2018-09-17T13:41:50.322Z,1019.98
2018-09-17T13:43:17.032Z,1019.97
2018-09-17T13:44:43.965Z,1020.02
2018-09-17T13:46:11.316Z,1020.00
2018-09-17T13:47:38.882Z,1020.02
2018-09-17T13:49:06.557Z,1019.98
2018-09-17T13:50:33.567Z,1019.95
2018-09-17T13:52:01.285Z,1019.94
2018-09-17T13:53:27.906Z,1019.94
2018-09-17T13:54:55.424Z,1019.92
2018-09-17T13:56:23.301Z,1019.92
2018-09-17T13:57:50.724Z,1019.90
2018-09-17T13:59:18.323Z,1019.91
2018-09-17T14:00:45.824Z,1019.89
2018-09-17T14:02:13.351Z,1019.85
2018-09-17T14:03:40.911Z,1019.85
2018-09-17T14:05:08.370Z,1019.84
2018-09-17T14:06:35.922Z,1019.81
2018-09-17T14:08:03.408Z,1019.80
2018-09-17T14:09:31.132Z,1019.82
2018-09-17T14:10:58.786Z,1019.83
2018-09-17T14:12:25.621Z,1019.80
2018-09-17T14:13:53.132Z,1019.79
2018-09-17T14:15:19.670Z,1019.81
2018-09-17T14:16:47.323Z,1019.80
2018-09-17T14:18:14.767Z,1019.83
2018-09-17T14:19:41.850Z,1019.81
2018-09-17T14:21:09.371Z,1019.79
2018-09-17T14:22:36.821Z,1019.79
2018-09-17T14:24:04.348Z,1019.82
2018-09-17T14:25:31.634Z,1019.79
2018-09-17T14:26:59.378Z,1019.78
2018-09-17T14:28:26.442Z,1019.79
2018-09-17T14:29:54.129Z,1019.79
2018-09-17T14:31:21.465Z,1019.77
2018-09-17T14:32:48.907Z,1019.79
2018-09-17T14:34:16.583Z,1019.75
2018-09-17T14:35:44.121Z,1019.74
2018-09-17T14:37:11.725Z,1019.72
2018-09-17T14:38:38.552Z,1019.70
2018-09-17T14:40:06.034Z,1019.69
2018-09-17T14:41:33.692Z,1019.69
2018-09-17T14:43:01.379Z,1019.71
2018-09-17T14:44:28.959Z,1019.70
2018-09-17T14:45:56.627Z,1019.69
2018-09-17T14:47:23.994Z,1019.70
2018-09-17T14:48:50.479Z,1019.69
2018-09-17T14:50:17.993Z,1019.68
2018-09-17T14:51:45.718Z,1019.70
2018-09-17T14:53:13.329Z,1019.72
2018-09-17T14:54:41.212Z,1019.72
2018-09-17T14:56:08.569Z,1019.69
2018-09-17T14:57:35.484Z,1019.69
2018-09-17T14:59:02.534Z,1019.68
2018-09-17T15:00:30.271Z,1019.68
2018-09-17T15:01:57.823Z,1019.69
2018-09-17T15:03:25.272Z,1019.66
2018-09-17T15:04:51.833Z,1019.65
2018-09-17T15:06:18.772Z,1019.63
2018-09-17T15:07:46.093Z,1019.62
2018-09-17T15:09:13.595Z,1019.61
2018-09-17T15:10:41.201Z,1019.62
2018-09-17T15:12:08.862Z,1019.61
2018-09-17T15:13:35.721Z,1019.60
2018-09-17T15:15:02.815Z,1019.61
2018-09-17T15:16:30.279Z,1019.60
2018-09-17T15:17:57.942Z,1019.61
2018-09-17T15:19:25.430Z,1019.63
2018-09-17T15:20:52.187Z,1019.61
2018-09-17T15:22:19.693Z,1019.59
2018-09-17T15:23:47.333Z,1019.58
2018-09-17T15:25:14.961Z,1019.57
2018-09-17T15:26:41.552Z,1019.56
2018-09-17T15:28:08.993Z,1019.60
2018-09-17T15:29:36.466Z,1019.63
2018-09-17T15:31:04.015Z,1019.62
2018-09-17T15:32:31.133Z,1019.64
2018-09-17T15:33:58.523Z,1019.67
2018-09-17T15:35:25.296Z,1019.64
2018-09-17T15:36:53.011Z,1019.65
2018-09-17T15:38:19.779Z,1019.63
2018-09-17T15:39:47.370Z,1019.63
2018-09-17T15:41:14.896Z,1019.62
2018-09-17T15:42:42.250Z,1019.62
2018-09-17T15:44:09.917Z,1019.61
2018-09-17T15:45:37.311Z,1019.63
2018-09-17T15:47:04.550Z,1019.59
2018-09-17T15:48:32.300Z,1019.59
2018-09-17T15:49:59.219Z,1019.58
2018-09-17T15:51:25.979Z,1019.54
2018-09-17T15:52:53.535Z,1019.56
2018-09-17T15:54:21.096Z,1019.53
2018-09-17T15:55:48.809Z,1019.50
2018-09-17T15:57:16.306Z,1019.47
2018-09-17T15:58:43.320Z,1019.44
2018-09-17T16:00:10.800Z,1019.41
2018-09-17T16:01:38.416Z,1019.40
2018-09-17T16:03:05.944Z,1019.38
2018-09-17T16:04:33.194Z,1019.38
2018-09-17T16:06:00.863Z,1019.40
2018-09-17T16:07:28.257Z,1019.40
2018-09-17T16:08:55.224Z,1019.37
2018-09-17T16:10:22.825Z,1019.36
2018-09-17T16:11:50.266Z,1019.37
2018-09-17T16:13:17.959Z,1019.36
2018-09-17T16:14:44.767Z,1019.33
2018-09-17T16:16:12.373Z,1019.34
2018-09-17T16:17:39.847Z,1019.33
2018-09-17T16:19:07.008Z,1019.33
2018-09-17T16:20:34.728Z,1019.33
2018-09-17T16:22:02.347Z,1019.33
2018-09-17T16:23:29.966Z,1019.30
2018-09-17T16:24:56.339Z,1019.30
2018-09-17T16:26:24.055Z,1019.28
2018-09-17T16:27:51.573Z,1019.27
2018-09-17T16:29:19.139Z,1019.29
2018-09-17T16:30:46.857Z,1019.30
2018-09-17T16:32:14.504Z,1019.28
2018-09-17T16:33:41.886Z,1019.28
2018-09-17T16:35:09.306Z,1019.25
2018-09-17T16:36:36.713Z,1019.26
2018-09-17T16:38:04.033Z,1019.26
2018-09-17T16:39:31.541Z,1019.28
2018-09-17T16:40:59.215Z,1019.28
2018-09-17T16:42:26.812Z,1019.30
2018-09-17T16:43:54.331Z,1019.32
2018-09-17T16:45:18.276Z,1019.35
2018-09-17T16:46:48.781Z,1019.36
2018-09-17T16:48:16.190Z,1019.34
2018-09-17T16:49:43.705Z,1019.38
2018-09-17T16:51:11.027Z,1019.42
2018-09-17T16:52:38.546Z,1019.44
2018-09-17T16:54:06.122Z,1019.46
2018-09-17T16:55:32.888Z,1019.45
2018-09-17T16:57:00.194Z,1019.43
2018-09-17T16:58:27.734Z,1019.42
2018-09-17T16:59:54.512Z,1019.44
2018-09-17T17:01:21.864Z,1019.44
2018-09-17T17:02:49.678Z,1019.48
2018-09-17T17:04:17.080Z,1019.48
2018-09-17T17:05:44.550Z,1019.50
2018-09-17T17:07:12.019Z,1019.55
2018-09-17T17:08:39.676Z,1019.54
2018-09-17T17:10:06.621Z,1019.56
2018-09-17T17:11:33.718Z,1019.57
2018-09-17T17:13:00.107Z,1019.59
2018-09-17T17:14:27.591Z,1019.60
2018-09-17T17:15:55.125Z,1019.63
2018-09-17T17:17:30.723Z,1019.65
2018-09-17T17:18:50.303Z,1019.66
2018-09-17T17:20:17.614Z,1019.68
2018-09-17T17:21:45.342Z,1019.69
2018-09-17T17:23:12.496Z,1019.68
2018-09-17T17:24:40.133Z,1019.69
2018-09-17T17:26:07.387Z,1019.70
2018-09-17T17:27:34.961Z,1019.68
2018-09-17T17:29:02.635Z,1019.68
2018-09-17T17:30:28.692Z,1019.65
2018-09-17T17:31:55.259Z,1019.62
2018-09-17T17:33:22.815Z,1019.60
2018-09-17T17:34:50.353Z,1019.59
2018-09-17T17:36:17.891Z,1019.60
2018-09-17T17:37:45.474Z,1019.62
2018-09-17T17:39:12.013Z,1019.65
2018-09-17T17:40:39.404Z,1019.70
2018-09-17T17:42:06.891Z,1019.71
2018-09-17T17:43:34.372Z,1019.73
2018-09-17T17:45:02.963Z,1019.74
2018-09-17T17:46:28.347Z,1019.75
2018-09-17T17:47:55.873Z,1019.76
2018-09-17T17:49:23.558Z,1019.80
2018-09-17T17:50:51.081Z,1019.82
2018-09-17T17:52:18.741Z,1019.84
2018-09-17T17:53:46.278Z,1019.85
2018-09-17T17:55:13.647Z,1019.87
2018-09-17T17:56:41.010Z,1019.89
2018-09-17T17:58:08.304Z,1019.93
2018-09-17T17:59:35.473Z,1019.97
2018-09-17T18:01:03.035Z,1019.94
2018-09-17T18:02:30.033Z,1019.98
2018-09-17T18:03:57.505Z,1019.99
2018-09-17T18:05:25.208Z,1020.02
2018-09-17T18:06:52.770Z,1020.00
2018-09-17T18:08:20.305Z,1019.99
2018-09-17T18:09:47.303Z,1020.01